createdAt,value
2019-02-12T00:01:00.410Z,1.70
2019-02-12T00:03:42.791Z,1.50
2019-02-12T00:06:11.362Z,1.60
2019-02-12T00:08:42.933Z,3.43
2019-02-12T00:11:11.801Z,1.50
2019-02-12T00:13:40.705Z,2.03
2019-02-12T00:16:09.286Z,2.10
2019-02-12T00:18:37.840Z,1.97
2019-02-12T00:21:09.236Z,1.40
2019-02-12T00:23:36.758Z,1.83
2019-02-12T00:26:05.574Z,2.87
2019-02-12T00:28:36.821Z,1.87
2019-02-12T00:31:05.392Z,1.90
2019-02-12T00:33:33.950Z,1.20
2019-02-12T00:36:02.527Z,1.93
2019-02-12T00:38:31.077Z,3.07
2019-02-12T00:40:59.657Z,1.80
2019-02-12T00:43:47.543Z,2.40
2019-02-12T00:46:16.120Z,1.53
2019-02-12T00:48:44.798Z,2.30
2019-02-12T00:51:17.715Z,2.10
2019-02-12T00:53:43.645Z,1.73
2019-02-12T00:56:12.233Z,1.73
2019-02-12T00:58:41.152Z,1.80
2019-02-12T01:01:09.866Z,1.80
2019-02-12T01:03:38.725Z,2.10
2019-02-12T01:06:07.293Z,1.57
2019-02-12T01:08:38.789Z,2.20
2019-02-12T01:11:07.446Z,1.90
2019-02-12T01:13:35.985Z,1.93
2019-02-12T01:16:04.621Z,2.07
2019-02-12T01:18:33.170Z,1.63
2019-02-12T01:21:01.740Z,1.50
2019-02-12T01:23:30.667Z,2.13
2019-02-12T01:25:59.301Z,2.33
2019-02-12T01:28:27.947Z,2.23
2019-02-12T01:30:56.518Z,2.20
2019-02-12T01:33:25.163Z,1.77
2019-02-12T01:35:57.303Z,1.30
2019-02-12T01:38:25.875Z,1.43
2019-02-12T01:40:57.849Z,1.90
2019-02-12T01:43:26.726Z,1.80
2019-02-12T01:45:55.299Z,2.00
2019-02-12T01:48:23.847Z,1.60
2019-02-12T01:50:54.167Z,2.07
2019-02-12T01:53:25.646Z,1.80
2019-02-12T01:55:55.839Z,1.80
2019-02-12T01:58:27.216Z,2.00
2019-02-12T02:00:55.785Z,1.60
2019-02-12T02:03:30.330Z,1.40
2019-02-12T02:05:58.976Z,1.97
2019-02-12T02:08:27.534Z,1.53
2019-02-12T02:10:56.272Z,2.63
2019-02-12T02:13:24.883Z,1.70
2019-02-12T02:15:54.962Z,1.93
2019-02-12T02:18:26.847Z,1.47
2019-02-12T02:20:55.420Z,1.67
2019-02-12T02:23:23.965Z,1.70
2019-02-12T02:25:54.281Z,2.10
2019-02-12T02:28:25.922Z,1.10
2019-02-12T02:30:54.500Z,1.37
2019-02-12T02:33:23.042Z,1.53
2019-02-12T02:35:54.110Z,2.10
2019-02-12T02:38:22.674Z,1.47
2019-02-12T02:40:51.334Z,1.27
2019-02-12T02:43:19.891Z,1.83
2019-02-12T02:45:48.440Z,1.33
2019-02-12T02:48:17.006Z,1.83
2019-02-12T02:50:45.621Z,2.00
2019-02-12T02:53:14.250Z,1.67
2019-02-12T02:55:45.532Z,1.67
2019-02-12T02:58:14.454Z,1.67
2019-02-12T03:00:43.076Z,3.23
2019-02-12T03:03:12.103Z,2.07
2019-02-12T03:05:40.704Z,1.40
2019-02-12T03:08:09.283Z,1.60
2019-02-12T03:10:37.936Z,1.63
2019-02-12T03:13:06.559Z,1.47
2019-02-12T03:15:35.178Z,1.40
2019-02-12T03:18:03.750Z,1.20
2019-02-12T03:20:32.301Z,1.30
2019-02-12T03:23:00.936Z,1.27
2019-02-12T03:25:29.530Z,1.47
2019-02-12T03:27:58.104Z,1.77
2019-02-12T03:30:26.664Z,1.20
2019-02-12T03:32:55.242Z,1.80
2019-02-12T03:35:23.876Z,1.63
2019-02-12T03:37:54.287Z,1.73
2019-02-12T03:40:25.627Z,1.70
2019-02-12T03:42:55.750Z,1.70
2019-02-12T03:45:27.105Z,1.87
2019-02-12T03:47:55.686Z,1.60
2019-02-12T03:50:27.090Z,1.93
2019-02-12T03:52:55.678Z,2.07
2019-02-12T03:55:26.894Z,2.30
2019-02-12T03:57:55.479Z,1.40
2019-02-12T04:00:25.957Z,1.40
2019-02-12T04:03:07.953Z,2.50
2019-02-12T04:05:38.053Z,1.70
2019-02-12T04:08:06.946Z,1.50
2019-02-12T04:10:35.656Z,1.60
2019-02-12T04:13:04.306Z,1.60
2019-02-12T04:15:32.844Z,1.57
2019-02-12T04:18:01.542Z,1.60
2019-02-12T04:20:30.155Z,1.43
2019-02-12T04:22:58.713Z,1.20
2019-02-12T04:25:27.678Z,1.93
2019-02-12T04:27:56.288Z,1.40
2019-02-12T04:30:25.735Z,1.53
2019-02-12T04:32:55.059Z,1.40
2019-02-12T04:35:26.294Z,2.40
2019-02-12T04:37:57.585Z,3.53
2019-02-12T04:40:26.198Z,1.43
2019-02-12T04:42:54.736Z,1.40
2019-02-12T04:45:25.255Z,1.30
2019-02-12T04:47:53.827Z,1.30
2019-02-12T04:50:24.300Z,1.70
2019-02-12T04:52:56.197Z,2.00
2019-02-12T04:55:24.764Z,1.50
2019-02-12T04:57:54.863Z,1.70
2019-02-12T05:00:24.999Z,1.90
2019-02-12T05:02:53.982Z,1.17
2019-02-12T05:05:22.566Z,2.03
2019-02-12T05:07:51.508Z,1.70
2019-02-12T05:10:28.738Z,2.33
2019-02-12T05:12:57.312Z,1.57
2019-02-12T05:15:25.911Z,3.20
2019-02-12T05:17:54.876Z,1.93
2019-02-12T05:20:24.931Z,2.20
2019-02-12T05:22:55.137Z,1.23
2019-02-12T05:25:26.938Z,1.60
2019-02-12T05:27:55.970Z,1.37
2019-02-12T05:30:27.214Z,4.63
2019-02-12T05:32:55.798Z,2.33
2019-02-12T05:35:27.054Z,1.93
2019-02-12T05:37:55.643Z,2.00
2019-02-12T05:40:25.838Z,2.10
2019-02-12T05:42:57.103Z,2.10
2019-02-12T05:45:25.648Z,1.40
2019-02-12T05:47:55.773Z,2.30
2019-02-12T05:50:27.148Z,2.20
2019-02-12T05:52:55.738Z,2.30
2019-02-12T05:55:27.328Z,1.77
2019-02-12T05:57:56.278Z,2.30
2019-02-12T06:00:26.596Z,1.77
2019-02-12T06:02:55.166Z,1.80
2019-02-12T06:05:30.782Z,1.80
2019-02-12T06:07:59.331Z,2.37
2019-02-12T06:10:27.933Z,1.30
2019-02-12T06:12:56.480Z,1.60
2019-02-12T06:15:25.090Z,2.70
2019-02-12T06:17:56.657Z,2.03
2019-02-12T06:20:25.248Z,1.37
2019-02-12T06:23:03.012Z,1.77
2019-02-12T06:25:25.283Z,3.13
2019-02-12T06:27:53.832Z,2.10
2019-02-12T06:30:24.506Z,1.70
2019-02-12T06:32:53.056Z,2.27
2019-02-12T06:35:23.964Z,2.77
2019-02-12T06:37:52.514Z,1.67
2019-02-12T06:40:22.358Z,1.40
2019-02-12T06:42:50.924Z,2.00
2019-02-12T06:45:19.531Z,2.47
2019-02-12T06:47:48.088Z,2.40
2019-02-12T06:50:16.989Z,1.40
2019-02-12T06:52:45.543Z,1.60
2019-02-12T06:55:14.188Z,4.10
2019-02-12T06:57:42.766Z,2.17
2019-02-12T07:00:15.249Z,1.70
2019-02-12T07:03:09.926Z,1.77
2019-02-12T07:05:53.455Z,1.70
2019-02-12T07:08:36.494Z,2.13
2019-02-12T07:11:26.410Z,1.93
2019-02-12T07:14:33.270Z,2.23
2019-02-12T07:17:11.187Z,3.70
2019-02-12T07:20:00.841Z,1.90
2019-02-12T07:22:50.752Z,1.93
2019-02-12T07:25:52.568Z,2.20
2019-02-12T07:28:50.665Z,1.73
2019-02-12T07:31:54.088Z,1.70
2019-02-12T07:34:25.749Z,2.83
2019-02-12T07:37:00.436Z,2.23
2019-02-12T07:39:52.689Z,1.47
2019-02-12T07:42:39.528Z,1.60
2019-02-12T07:45:27.943Z,1.57
2019-02-12T07:47:59.784Z,1.80
2019-02-12T07:50:37.121Z,1.80
2019-02-12T07:53:08.799Z,1.47
2019-02-12T07:56:14.714Z,2.50
2019-02-12T07:59:04.359Z,1.80
2019-02-12T08:02:11.878Z,1.27
2019-02-12T08:04:54.165Z,1.80
2019-02-12T08:07:31.578Z,3.00
2019-02-12T08:10:03.185Z,2.20
2019-02-12T08:13:16.559Z,2.13
2019-02-12T08:16:08.496Z,1.37
2019-02-12T08:19:05.483Z,2.00
2019-02-12T08:22:03.839Z,2.33
2019-02-12T08:24:38.205Z,1.90
2019-02-12T08:27:09.844Z,2.00
2019-02-12T08:29:44.484Z,2.10
2019-02-12T08:32:31.275Z,1.53
2019-02-12T08:35:09.091Z,1.50
2019-02-12T08:37:43.993Z,1.90
2019-02-12T08:40:34.025Z,2.03
2019-02-12T08:43:36.616Z,1.80
2019-02-12T08:46:10.964Z,1.63
2019-02-12T08:48:48.122Z,1.90
2019-02-12T08:51:31.844Z,2.03
2019-02-12T08:54:18.569Z,1.53
2019-02-12T08:56:52.918Z,1.67
2019-02-12T08:59:24.576Z,1.23
2019-02-12T09:02:14.158Z,1.70
2019-02-12T09:04:54.708Z,3.10
2019-02-12T09:07:34.913Z,2.10
2019-02-12T09:10:24.553Z,1.83
2019-02-12T09:13:04.926Z,1.40
2019-02-12T09:16:02.474Z,1.67
2019-02-12T09:19:03.920Z,2.43
2019-02-12T09:21:41.989Z,3.33
2019-02-12T09:24:26.007Z,1.73
2019-02-12T09:27:17.508Z,1.43
2019-02-12T09:30:03.738Z,2.07
2019-02-12T09:32:54.689Z,1.30
2019-02-12T09:35:34.957Z,2.03
2019-02-12T09:38:27.647Z,1.70
2019-02-12T09:41:17.257Z,1.40
2019-02-12T09:43:54.610Z,2.20
2019-02-12T09:46:46.659Z,1.70
2019-02-12T09:49:39.307Z,2.70
2019-02-12T09:52:46.118Z,1.63
2019-02-12T09:55:29.590Z,1.83
2019-02-12T09:58:35.753Z,1.90
2019-02-12T10:01:19.697Z,2.00
2019-02-12T10:04:08.028Z,1.87
2019-02-12T10:06:42.363Z,2.10
2019-02-12T10:10:05.516Z,2.73
2019-02-12T10:12:49.790Z,2.57
2019-02-12T10:15:55.840Z,2.03
2019-02-12T10:18:46.907Z,1.03
2019-02-12T10:21:38.397Z,1.90
2019-02-12T10:24:19.241Z,1.60
2019-02-12T10:27:03.529Z,1.77
2019-02-12T10:29:35.168Z,3.03
2019-02-12T10:32:08.489Z,2.30
2019-02-12T10:34:32.877Z,2.33
2019-02-12T10:37:01.434Z,1.73
2019-02-12T10:39:30.031Z,1.67
2019-02-12T10:41:58.981Z,1.77
2019-02-12T10:44:27.562Z,1.30
2019-02-12T10:46:56.112Z,1.30
2019-02-12T10:49:24.767Z,1.30
2019-02-12T10:51:54.814Z,1.23
2019-02-12T10:54:27.972Z,2.27
2019-02-12T10:56:55.211Z,1.50
2019-02-12T10:59:23.777Z,1.57
2019-02-12T11:01:52.761Z,1.40
2019-02-12T11:04:21.772Z,1.30
2019-02-12T11:06:50.316Z,1.40
2019-02-12T11:09:18.883Z,1.70
2019-02-12T11:11:47.692Z,1.63
2019-02-12T11:14:16.707Z,2.20
2019-02-12T11:16:45.317Z,1.33
2019-02-12T11:19:13.927Z,1.40
2019-02-12T11:21:42.637Z,1.63
2019-02-12T11:24:11.194Z,1.30
2019-02-12T11:26:39.870Z,1.20
2019-02-12T11:29:08.463Z,1.57
2019-02-12T11:31:37.076Z,2.27
2019-02-12T11:34:05.637Z,1.07
2019-02-12T11:36:34.545Z,1.20
2019-02-12T11:39:03.171Z,1.30
2019-02-12T11:41:31.742Z,1.40
2019-02-12T11:44:00.673Z,1.63
2019-02-12T11:46:29.265Z,1.80
2019-02-12T11:48:57.806Z,1.83
2019-02-12T11:51:26.461Z,1.63
2019-02-12T11:53:55.027Z,1.60
2019-02-12T11:56:23.807Z,1.80
2019-02-12T11:58:54.152Z,1.77
2019-02-12T12:01:23.908Z,1.50
2019-02-12T12:03:52.514Z,1.50
2019-02-12T12:06:23.060Z,1.30
2019-02-12T12:08:51.416Z,2.53
2019-02-12T12:11:20.053Z,1.73
2019-02-12T12:13:48.711Z,2.07
2019-02-12T12:16:17.299Z,1.13
2019-02-12T12:18:45.922Z,1.97
2019-02-12T12:21:14.531Z,1.80
2019-02-12T12:23:43.082Z,1.73
2019-02-12T12:26:11.754Z,1.53
2019-02-12T12:28:40.332Z,1.47
2019-02-12T12:31:08.878Z,1.40
2019-02-12T12:33:37.452Z,1.70
2019-02-12T12:36:06.091Z,1.70
2019-02-12T12:38:34.672Z,1.40
2019-02-12T12:41:03.310Z,1.47
2019-02-12T12:43:31.994Z,1.37
2019-02-12T12:46:00.527Z,1.77
2019-02-12T12:48:29.238Z,1.17
2019-02-12T12:50:57.799Z,1.20
2019-02-12T12:53:26.738Z,1.67
2019-02-12T12:55:55.333Z,1.77
2019-02-12T12:58:23.949Z,2.40
2019-02-12T13:00:54.283Z,2.60
2019-02-12T13:03:23.006Z,2.70
2019-02-12T13:05:55.456Z,1.57
2019-02-12T13:08:24.103Z,1.73
2019-02-12T13:10:52.664Z,1.57
2019-02-12T13:13:23.722Z,2.40
2019-02-12T13:15:54.240Z,1.97
2019-02-12T13:18:22.891Z,1.40
2019-02-12T13:20:51.454Z,1.63
2019-02-12T13:23:20.468Z,1.67
2019-02-12T13:25:49.440Z,1.57
2019-02-12T13:28:18.918Z,1.33
2019-02-12T13:30:47.547Z,4.27
2019-02-12T13:33:17.804Z,13.07
2019-02-12T13:35:46.692Z,6.43
2019-02-12T13:38:16.244Z,18.07
2019-02-12T13:40:44.809Z,3.67
2019-02-12T13:43:13.704Z,4.80
2019-02-12T13:45:42.239Z,7.23
2019-02-12T13:48:10.838Z,1.83
2019-02-12T13:50:39.507Z,2.53
2019-02-12T13:53:08.090Z,2.67
2019-02-12T13:55:36.793Z,3.77
2019-02-12T13:58:05.776Z,5.97
2019-02-12T14:00:34.545Z,2.43
2019-02-12T14:03:03.153Z,2.97
2019-02-12T14:05:31.819Z,2.10
2019-02-12T14:08:00.499Z,3.43
2019-02-12T14:10:29.033Z,2.90
2019-02-12T14:12:57.996Z,2.10
2019-02-12T14:15:26.612Z,1.70
2019-02-12T14:17:56.144Z,1.80
2019-02-12T14:20:24.944Z,1.60
2019-02-12T14:22:53.518Z,1.50
2019-02-12T14:25:25.783Z,1.73
2019-02-12T14:27:52.422Z,2.37
2019-02-12T14:30:22.533Z,1.30
2019-02-12T14:32:51.450Z,1.60
2019-02-12T14:35:20.002Z,1.40
2019-02-12T14:37:48.559Z,1.13
2019-02-12T14:43:46.460Z,1.20
2019-02-12T14:46:15.012Z,1.47
2019-02-12T14:48:43.611Z,1.03
2019-02-12T14:51:12.188Z,1.20
2019-02-12T14:53:41.208Z,1.93
2019-02-12T14:56:11.393Z,1.03
2019-02-12T14:58:40.204Z,1.50
2019-02-12T15:01:08.900Z,1.70
2019-02-12T15:03:37.785Z,1.40
2019-02-12T15:06:06.360Z,1.27
2019-02-12T15:08:34.950Z,1.30
2019-02-12T15:17:26.118Z,2.50
2019-02-12T15:19:54.691Z,2.00
2019-02-12T15:22:24.791Z,2.10
2019-02-12T15:24:54.858Z,1.90
2019-02-12T15:27:24.928Z,2.13
2019-02-12T15:29:53.675Z,1.30
2019-02-12T15:35:11.774Z,1.57
2019-02-12T15:37:40.402Z,1.83
2019-02-12T15:40:12.099Z,1.50
2019-02-12T15:42:40.658Z,1.70
2019-02-12T15:45:12.474Z,2.10
2019-02-12T15:47:41.023Z,2.47
2019-02-12T15:54:28.941Z,1.90
2019-02-12T15:56:10.082Z,4.70
2019-02-12T15:58:38.640Z,1.90
2019-02-12T16:01:07.229Z,1.53
2019-02-12T16:03:36.487Z,1.60
2019-02-12T16:06:06.081Z,1.50
2019-02-12T16:08:34.637Z,2.00
2019-02-12T16:11:03.207Z,1.27
2019-02-12T16:13:32.729Z,1.80
2019-02-12T16:16:02.050Z,2.47
2019-02-12T16:18:30.614Z,2.23
2019-02-12T16:20:59.192Z,3.63
2019-02-12T16:23:27.787Z,4.43
2019-02-12T16:25:59.481Z,3.83
2019-02-12T16:28:27.001Z,2.90
2019-02-12T16:30:55.576Z,2.57
2019-02-12T16:33:25.670Z,1.87
2019-02-12T16:35:57.353Z,1.53
2019-02-12T16:38:25.926Z,1.57
2019-02-12T16:40:54.508Z,1.93
2019-02-12T16:43:23.060Z,2.60
2019-02-12T16:46:16.780Z,1.13
2019-02-12T16:48:45.331Z,1.87
2019-02-12T16:51:13.901Z,1.97
2019-02-12T16:53:43.035Z,2.00
2019-02-12T16:56:11.685Z,1.83
2019-02-12T16:58:40.238Z,2.10
2019-02-12T17:01:08.919Z,2.03
2019-02-12T17:03:37.468Z,1.70
2019-02-12T17:06:06.650Z,1.30
2019-02-12T17:08:35.213Z,2.00
2019-02-12T17:11:03.780Z,1.83
2019-02-12T17:13:35.247Z,1.93
2019-02-12T17:16:04.169Z,1.93
2019-02-12T17:18:32.846Z,2.03
2019-02-12T17:21:01.442Z,1.90
2019-02-12T17:23:29.992Z,2.33
2019-02-12T17:25:58.568Z,7.20
2019-02-12T17:28:27.116Z,4.93
2019-02-12T17:30:57.231Z,4.90
2019-02-12T17:33:27.763Z,2.80
2019-02-12T17:35:56.343Z,2.70
2019-02-12T17:38:26.412Z,3.27
2019-02-12T17:40:55.363Z,3.50
2019-02-12T17:43:23.907Z,2.40
2019-02-12T17:45:54.179Z,2.53
2019-02-12T17:48:22.727Z,2.60
2019-02-12T17:50:51.384Z,2.90
2019-02-12T17:53:23.203Z,4.07
2019-02-12T17:55:54.536Z,3.20
2019-02-12T17:58:23.114Z,3.07
2019-02-12T18:00:54.206Z,3.40
2019-02-12T18:06:51.462Z,9.13
2019-02-12T18:09:20.029Z,4.13
2019-02-12T18:11:48.605Z,3.60
2019-02-12T18:14:17.163Z,4.63
2019-02-12T18:16:45.751Z,4.60
2019-02-12T18:19:14.305Z,4.40
2019-02-12T18:21:42.902Z,3.53
2019-02-12T18:24:11.454Z,3.13
2019-02-12T18:26:42.733Z,3.73
2019-02-12T18:29:11.287Z,3.27
2019-02-12T18:31:40.348Z,3.50
2019-02-12T18:34:09.280Z,4.83
2019-02-12T18:36:37.881Z,4.20
2019-02-12T18:39:06.645Z,4.47
2019-02-12T18:41:35.322Z,3.70
2019-02-12T18:44:03.856Z,3.93
2019-02-12T18:46:32.413Z,4.80
2019-02-12T18:49:01.058Z,4.20
2019-02-12T18:51:29.615Z,4.60
2019-02-12T18:54:00.924Z,4.83
2019-02-12T18:56:29.471Z,4.67
2019-02-12T18:58:58.045Z,6.20
2019-02-12T19:01:26.598Z,5.33
2019-02-12T19:03:55.188Z,4.90
2019-02-12T19:06:23.806Z,5.70
2019-02-12T19:08:54.443Z,3.90
2019-02-12T19:14:52.474Z,4.70
2019-02-12T19:17:26.866Z,5.50
2019-02-12T19:19:55.417Z,4.17
2019-02-12T19:22:25.541Z,3.90
2019-02-12T19:24:55.654Z,4.00
2019-02-12T19:27:27.118Z,3.90
2019-02-12T19:29:55.684Z,4.70
2019-02-12T19:32:27.374Z,4.17
2019-02-12T19:34:56.316Z,3.43
2019-02-12T19:37:24.935Z,4.63
2019-02-12T19:39:53.950Z,7.67
2019-02-12T19:42:22.524Z,8.53
2019-02-12T19:44:53.113Z,9.30
2019-02-12T19:47:21.405Z,12.43
2019-02-12T19:49:49.961Z,12.67
2019-02-12T19:52:18.521Z,12.33
2019-02-12T19:57:34.502Z,12.00
2019-02-12T20:00:06.285Z,11.70
2019-02-12T20:02:34.875Z,14.80
2019-02-12T20:05:14.602Z,10.20
2019-02-12T20:07:43.604Z,7.50
2019-02-12T20:10:13.518Z,7.27
2019-02-12T20:12:42.538Z,6.13
2019-02-12T20:15:14.005Z,5.97
2019-02-12T20:17:42.568Z,5.40
2019-02-12T20:20:12.656Z,5.40
2019-02-12T20:22:46.869Z,5.33
2019-02-12T20:25:15.830Z,5.63
2019-02-12T20:27:45.055Z,6.40
2019-02-12T20:30:33.307Z,5.10
2019-02-12T20:33:05.462Z,7.27
2019-02-12T20:35:36.387Z,3.43
2019-02-12T20:38:04.344Z,6.70
2019-02-12T20:40:32.898Z,5.00
2019-02-12T20:43:01.454Z,5.80
2019-02-12T20:45:30.056Z,4.30
2019-02-12T20:47:58.688Z,4.23
2019-02-12T20:50:27.259Z,3.07
2019-02-12T20:52:55.868Z,3.40
2019-02-12T20:55:27.937Z,3.43
2019-02-12T20:57:56.522Z,3.20
2019-02-12T21:00:25.439Z,3.30
2019-02-12T21:02:55.591Z,2.73
2019-02-12T21:05:26.009Z,3.53
2019-02-12T21:07:54.561Z,3.93
2019-02-12T21:10:26.628Z,4.27
2019-02-12T21:12:55.182Z,3.20
2019-02-12T21:15:30.571Z,3.17
2019-02-12T21:17:59.179Z,3.63
2019-02-12T21:20:30.448Z,2.70
2019-02-12T21:22:59.098Z,3.57
2019-02-12T21:25:27.672Z,3.97
2019-02-12T21:27:56.587Z,2.87
2019-02-12T21:30:26.613Z,3.10
2019-02-12T21:32:55.165Z,3.93
2019-02-12T21:35:26.425Z,3.20
2019-02-12T21:37:55.008Z,3.67
2019-02-12T21:40:28.367Z,3.97
2019-02-12T21:42:56.920Z,2.60
2019-02-12T21:45:25.489Z,2.90
2019-02-12T21:47:55.578Z,3.00
2019-02-12T21:50:25.693Z,3.37
2019-02-12T21:52:58.977Z,3.30
2019-02-12T21:55:27.551Z,2.73
2019-02-12T21:57:56.190Z,3.10
2019-02-12T22:00:24.861Z,3.70
2019-02-12T22:02:54.949Z,4.10
2019-02-12T22:05:25.341Z,4.20
2019-02-12T22:07:54.262Z,2.73
2019-02-12T22:10:27.553Z,2.57
2019-02-12T22:12:56.109Z,3.33
2019-02-12T22:15:24.676Z,3.03
2019-02-12T22:17:53.396Z,3.07
2019-02-12T22:20:23.208Z,2.50
2019-02-12T22:22:52.160Z,3.17
2019-02-12T22:25:20.738Z,2.63
2019-02-12T22:27:49.289Z,4.67
2019-02-12T22:30:24.739Z,2.80
2019-02-12T22:32:54.810Z,3.50
2019-02-12T22:35:25.259Z,2.67
2019-02-12T22:37:54.176Z,3.30
2019-02-12T22:40:22.826Z,4.00
2019-02-12T22:42:51.368Z,2.77
2019-02-12T22:45:24.227Z,2.80
2019-02-12T22:47:55.650Z,2.90
2019-02-12T22:50:27.315Z,3.97
2019-02-12T22:52:55.871Z,3.13
2019-02-12T22:55:24.453Z,3.67
2019-02-12T22:57:53.339Z,3.50
2019-02-12T23:00:26.607Z,3.20
2019-02-12T23:02:55.151Z,3.80
2019-02-12T23:05:26.742Z,3.27
2019-02-12T23:07:55.288Z,3.83
2019-02-12T23:10:23.868Z,3.80
2019-02-12T23:12:55.362Z,3.23
2019-02-12T23:15:24.013Z,3.70
2019-02-12T23:17:52.561Z,3.97
2019-02-12T23:20:22.242Z,3.47
2019-02-12T23:22:50.777Z,3.57
2019-02-12T23:25:19.749Z,3.80
2019-02-12T23:27:48.309Z,3.60
2019-02-12T23:30:17.294Z,4.03
2019-02-12T23:32:45.854Z,3.70
2019-02-12T23:35:14.877Z,3.53
2019-02-12T23:37:43.450Z,4.43
2019-02-12T23:40:11.999Z,4.90
2019-02-12T23:42:40.576Z,4.53
2019-02-12T23:45:10.131Z,4.73
2019-02-12T23:47:39.132Z,5.40
2019-02-12T23:50:08.723Z,4.30
2019-02-12T23:52:37.305Z,5.20
2019-02-12T23:55:06.993Z,6.17
2019-02-12T23:57:35.567Z,5.03
